createdAt,value
2018-02-13T00:02:12.414Z,56.70
2018-02-13T00:04:42.174Z,54.27
2018-02-13T00:07:12.487Z,55.10
2018-02-13T00:09:42.845Z,55.63
2018-02-13T00:12:13.335Z,57.30
2018-02-13T00:14:43.737Z,52.00
2018-02-13T00:17:14.108Z,58.40
2018-02-13T00:19:44.525Z,54.37
2018-02-13T00:22:14.956Z,52.77
2018-02-13T00:24:45.270Z,55.33
2018-02-13T00:27:15.809Z,57.63
2018-02-13T00:29:46.350Z,57.57
2018-02-13T00:32:16.421Z,57.37
2018-02-13T00:34:46.871Z,51.83
2018-02-13T00:37:17.274Z,53.53
2018-02-13T00:39:47.732Z,55.40
2018-02-13T00:42:17.967Z,55.47
2018-02-13T00:44:48.309Z,51.17
2018-02-13T00:47:18.112Z,50.70
2018-02-13T00:49:48.562Z,46.33
2018-02-13T00:52:18.990Z,52.73
2018-02-13T00:54:49.195Z,47.97
2018-02-13T00:57:19.129Z,49.47
2018-02-13T00:59:49.613Z,49.40
2018-02-13T01:02:19.939Z,50.17
2018-02-13T01:04:50.184Z,48.30
2018-02-13T01:07:20.516Z,49.17
2018-02-13T01:09:50.367Z,47.07
2018-02-13T01:12:21.147Z,51.50
2018-02-13T01:14:51.503Z,43.27
2018-02-13T01:17:21.807Z,48.43
2018-02-13T01:19:52.288Z,50.73
2018-02-13T01:22:22.701Z,48.63
2018-02-13T01:24:52.802Z,47.77
2018-02-13T01:27:23.411Z,42.00
2018-02-13T01:29:53.882Z,51.70
2018-02-13T01:32:24.378Z,47.57
2018-02-13T01:34:54.806Z,47.90
2018-02-13T01:37:25.294Z,44.00
2018-02-13T01:39:55.320Z,43.73
2018-02-13T01:42:25.798Z,47.60
2018-02-13T01:44:56.164Z,49.63
2018-02-13T01:47:27.163Z,44.10
2018-02-13T01:49:57.060Z,45.43
2018-02-13T01:52:27.856Z,45.33
2018-02-13T01:54:58.251Z,46.87
2018-02-13T01:57:28.620Z,41.87
2018-02-13T01:59:59.149Z,46.70
2018-02-13T02:02:29.200Z,47.43
2018-02-13T02:04:59.626Z,43.03
2018-02-13T02:07:29.858Z,44.07
2018-02-13T02:10:00.339Z,45.53
2018-02-13T02:12:30.745Z,45.90
2018-02-13T02:15:01.265Z,46.83
2018-02-13T02:17:31.784Z,41.73
2018-02-13T02:20:01.664Z,39.23
2018-02-13T02:22:32.043Z,43.13
2018-02-13T02:25:02.600Z,39.17
2018-02-13T02:27:33.128Z,41.37
2018-02-13T02:30:03.546Z,46.60
2018-02-13T02:32:33.480Z,42.50
2018-02-13T02:35:03.891Z,42.77
2018-02-13T02:37:34.405Z,44.10
2018-02-13T02:40:05.150Z,44.67
2018-02-13T02:42:46.910Z,42.17
2018-02-13T02:45:17.175Z,43.47
2018-02-13T02:47:47.488Z,40.90
2018-02-13T02:50:18.209Z,42.67
2018-02-13T02:52:48.911Z,41.33
2018-02-13T02:55:19.362Z,45.77
2018-02-13T02:57:49.830Z,44.73
2018-02-13T03:00:19.963Z,40.33
2018-02-13T03:02:50.596Z,47.97
2018-02-13T03:05:21.135Z,41.17
2018-02-13T03:07:51.917Z,40.97
2018-02-13T03:10:22.566Z,53.07
2018-02-13T03:12:53.010Z,45.23
2018-02-13T03:15:23.156Z,45.63
2018-02-13T03:17:54.181Z,43.60
2018-02-13T03:20:24.622Z,43.43
2018-02-13T03:22:54.713Z,46.57
2018-02-13T03:25:25.501Z,48.40
2018-02-13T03:27:56.118Z,45.53
2018-02-13T03:30:26.289Z,41.73
2018-02-13T03:32:56.764Z,48.77
2018-02-13T03:35:26.905Z,45.97
2018-02-13T03:37:57.375Z,42.37
2018-02-13T03:40:28.202Z,42.17
2018-02-13T03:42:58.019Z,41.87
2018-02-13T03:45:28.379Z,40.57
2018-02-13T03:47:58.391Z,42.03
2018-02-13T03:50:28.991Z,38.30
2018-02-13T03:52:59.534Z,40.67
2018-02-13T03:55:29.309Z,42.67
2018-02-13T03:57:59.792Z,51.27
2018-02-13T04:00:30.363Z,45.43
2018-02-13T04:03:00.910Z,54.17
2018-02-13T04:05:30.647Z,51.80
2018-02-13T04:08:01.104Z,50.30
2018-02-13T04:10:31.813Z,53.30
2018-02-13T04:13:02.475Z,51.70
2018-02-13T04:15:32.960Z,49.83
2018-02-13T04:18:03.329Z,50.13
2018-02-13T04:20:33.771Z,46.60
2018-02-13T04:23:04.390Z,48.87
2018-02-13T04:25:34.615Z,50.53
2018-02-13T04:28:04.820Z,45.70
2018-02-13T04:30:35.110Z,46.90
2018-02-13T04:33:05.447Z,45.07
2018-02-13T04:35:35.606Z,46.93
2018-02-13T04:38:06.220Z,48.80
2018-02-13T04:40:36.914Z,43.07
2018-02-13T04:43:07.658Z,45.33
2018-02-13T04:45:38.194Z,44.03
2018-02-13T04:48:08.438Z,41.50
2018-02-13T04:50:38.827Z,45.03
2018-02-13T04:53:09.306Z,50.63
2018-02-13T04:55:39.384Z,50.63
2018-02-13T04:58:10.607Z,48.40
2018-02-13T05:00:41.259Z,45.63
2018-02-13T05:03:11.500Z,45.83
2018-02-13T05:05:41.615Z,55.33
2018-02-13T05:08:12.137Z,52.53
2018-02-13T05:10:42.655Z,53.77
2018-02-13T05:13:13.201Z,54.73
2018-02-13T05:15:43.731Z,53.70
2018-02-13T05:18:14.021Z,54.67
2018-02-13T05:20:44.583Z,63.03
2018-02-13T05:23:15.304Z,59.73
2018-02-13T05:25:45.861Z,59.53
2018-02-13T05:28:16.188Z,64.23
2018-02-13T05:30:46.517Z,57.87
2018-02-13T05:33:16.764Z,57.27
2018-02-13T05:35:46.997Z,53.83
2018-02-13T05:38:17.398Z,65.07
2018-02-13T05:40:47.745Z,55.40
2018-02-13T05:43:18.036Z,55.50
2018-02-13T05:45:48.518Z,61.97
2018-02-13T05:48:18.751Z,53.50
2018-02-13T05:50:49.215Z,57.27
2018-02-13T05:53:18.979Z,59.13
2018-02-13T05:55:48.697Z,58.83
2018-02-13T05:58:18.525Z,56.27
2018-02-13T06:00:48.253Z,61.57
2018-02-13T06:03:17.978Z,53.03
2018-02-13T06:05:47.666Z,60.67
2018-02-13T06:08:17.403Z,60.10
2018-02-13T06:10:47.099Z,63.17
2018-02-13T06:13:16.857Z,55.53
2018-02-13T06:15:46.566Z,57.97
2018-02-13T06:18:16.278Z,58.33
2018-02-13T06:20:46.003Z,58.20
2018-02-13T06:23:15.913Z,58.30
2018-02-13T06:25:45.804Z,58.73
2018-02-13T06:28:16.218Z,55.43
2018-02-13T06:30:46.785Z,54.57
2018-02-13T06:33:17.266Z,55.90
2018-02-13T06:35:47.681Z,57.77
2018-02-13T06:38:17.753Z,55.33
2018-02-13T06:40:48.051Z,59.63
2018-02-13T06:43:18.446Z,55.53
2018-02-13T06:45:48.828Z,56.20
2018-02-13T06:48:19.298Z,61.13
2018-02-13T06:50:49.374Z,62.93
2018-02-13T06:53:20.131Z,61.63
2018-02-13T06:55:50.210Z,63.73
2018-02-13T06:58:20.580Z,61.40
2018-02-13T07:00:50.968Z,66.17
2018-02-13T07:03:20.872Z,63.00
2018-02-13T07:05:50.724Z,65.37
2018-02-13T07:08:20.447Z,62.40
2018-02-13T07:10:50.759Z,66.87
2018-02-13T07:13:21.083Z,63.33
2018-02-13T07:15:51.260Z,55.23
2018-02-13T07:18:21.020Z,63.30
2018-02-13T07:20:50.755Z,63.87
2018-02-13T07:23:20.786Z,60.40
2018-02-13T07:25:50.514Z,64.10
2018-02-13T07:28:20.318Z,65.97
2018-02-13T07:30:50.642Z,65.43
2018-02-13T07:33:20.404Z,72.90
2018-02-13T07:35:50.170Z,64.37
2018-02-13T07:38:20.376Z,60.27
2018-02-13T07:40:50.713Z,59.70
2018-02-13T07:43:20.653Z,57.67
2018-02-13T07:45:51.019Z,64.73
2018-02-13T07:48:21.298Z,67.63
2018-02-13T07:50:51.656Z,66.10
2018-02-13T07:53:21.361Z,63.37
2018-02-13T07:55:51.594Z,64.13
2018-02-13T07:58:22.257Z,70.40
2018-02-13T08:00:52.104Z,63.57
2018-02-13T08:03:21.839Z,58.77
2018-02-13T08:05:52.170Z,60.37
2018-02-13T08:08:21.974Z,60.40
2018-02-13T08:10:52.031Z,63.43
2018-02-13T08:13:22.200Z,58.73
2018-02-13T08:15:52.134Z,54.90
2018-02-13T08:18:22.235Z,58.33
2018-02-13T08:20:52.067Z,61.37
2018-02-13T08:23:22.420Z,60.27
2018-02-13T08:25:52.102Z,54.57
2018-02-13T08:28:22.292Z,52.97
2018-02-13T08:30:52.031Z,52.40
2018-02-13T08:33:21.720Z,53.50
2018-02-13T08:35:51.884Z,47.10
2018-02-13T08:38:22.332Z,53.77
2018-02-13T08:40:52.545Z,46.53
2018-02-13T08:43:22.331Z,48.23
2018-02-13T08:45:52.054Z,44.40
2018-02-13T08:48:21.899Z,47.77
2018-02-13T08:50:52.124Z,50.13
2018-02-13T08:53:22.868Z,47.07
2018-02-13T08:55:52.677Z,52.40
2018-02-13T08:58:22.696Z,48.27
2018-02-13T09:00:52.524Z,49.47
2018-02-13T09:03:22.250Z,51.93
2018-02-13T09:05:52.384Z,50.73
2018-02-13T09:08:22.282Z,52.03
2018-02-13T09:10:51.978Z,55.40
2018-02-13T09:13:22.391Z,49.83
2018-02-13T09:15:52.132Z,57.60
2018-02-13T09:18:22.516Z,54.17
2018-02-13T09:20:52.809Z,51.97
2018-02-13T09:23:22.812Z,50.83
2018-02-13T09:25:52.580Z,51.50
2018-02-13T09:28:22.317Z,51.87
2018-02-13T09:30:53.497Z,51.70
2018-02-13T09:33:23.163Z,50.93
2018-02-13T09:35:52.892Z,49.40
2018-02-13T09:38:22.578Z,46.27
2018-02-13T09:40:52.418Z,38.10
2018-02-13T09:43:22.154Z,42.47
2018-02-13T09:45:51.830Z,40.03
2018-02-13T09:48:21.948Z,41.70
2018-02-13T09:50:51.612Z,29.53
2018-02-13T09:53:21.303Z,34.63
2018-02-13T09:55:51.520Z,34.27
2018-02-13T09:58:21.337Z,33.03
2018-02-13T10:00:51.716Z,28.07
2018-02-13T10:03:21.955Z,29.87
2018-02-13T10:05:52.256Z,27.93
2018-02-13T10:08:21.971Z,22.90
2018-02-13T10:10:51.726Z,25.83
2018-02-13T10:13:21.651Z,26.47
2018-02-13T10:15:51.391Z,25.07
2018-02-13T10:18:21.642Z,21.90
2018-02-13T10:20:51.788Z,23.73
2018-02-13T10:23:21.869Z,26.30
2018-02-13T10:25:51.863Z,26.03
2018-02-13T10:28:21.826Z,20.57
2018-02-13T10:30:52.362Z,26.37
2018-02-13T10:33:22.725Z,26.37
2018-02-13T10:35:52.429Z,24.93
2018-02-13T10:38:22.522Z,29.00
2018-02-13T10:40:52.980Z,28.20
2018-02-13T10:43:23.162Z,44.73
2018-02-13T10:45:53.496Z,24.07
2018-02-13T10:48:23.877Z,21.43
2018-02-13T10:50:53.911Z,21.63
2018-02-13T10:53:24.267Z,27.00
2018-02-13T10:55:54.074Z,23.87
2018-02-13T10:58:23.795Z,23.77
2018-02-13T11:00:59.439Z,27.87
2018-02-13T11:03:29.138Z,25.03
2018-02-13T11:05:59.524Z,25.07
2018-02-13T11:08:30.000Z,21.77
2018-02-13T11:11:00.089Z,23.97
2018-02-13T11:13:31.148Z,22.47
2018-02-13T11:16:01.390Z,22.97
2018-02-13T11:18:31.187Z,25.87
2018-02-13T11:21:02.518Z,24.13
2018-02-13T11:23:32.852Z,24.03
2018-02-13T11:26:02.979Z,26.03
2018-02-13T11:28:33.336Z,26.87
2018-02-13T11:31:03.521Z,29.40
2018-02-13T11:33:33.342Z,26.60
2018-02-13T11:36:03.272Z,27.40
2018-02-13T11:38:33.036Z,22.90
2018-02-13T11:41:02.794Z,26.77
2018-02-13T11:43:33.165Z,25.70
2018-02-13T11:46:02.930Z,22.00
2018-02-13T11:48:32.731Z,25.97
2018-02-13T11:51:03.037Z,24.27
2018-02-13T11:53:33.314Z,26.63
2018-02-13T11:56:03.494Z,24.60
2018-02-13T11:58:33.169Z,27.27
2018-02-13T12:01:03.617Z,24.13
2018-02-13T12:03:33.304Z,26.37
2018-02-13T12:06:03.411Z,26.70
2018-02-13T12:08:33.896Z,27.93
2018-02-13T12:11:06.932Z,25.43
2018-02-13T12:13:37.201Z,26.93
2018-02-13T12:16:07.262Z,27.27
2018-02-13T12:18:37.607Z,28.20
2018-02-13T12:21:07.428Z,28.97
2018-02-13T12:23:37.781Z,31.50
2018-02-13T12:26:08.058Z,28.03
2018-02-13T12:28:37.886Z,28.97
2018-02-13T12:31:07.682Z,27.73
2018-02-13T12:33:37.400Z,30.33
2018-02-13T12:36:07.686Z,26.67
2018-02-13T12:38:37.968Z,24.10
2018-02-13T12:41:07.929Z,28.90
2018-02-13T12:43:38.174Z,27.97
2018-02-13T12:46:07.921Z,26.50
2018-02-13T12:48:37.823Z,24.67
2018-02-13T12:51:07.588Z,26.23
2018-02-13T12:53:37.889Z,27.17
2018-02-13T12:56:07.608Z,26.20
2018-02-13T12:58:37.467Z,30.43
2018-02-13T13:01:07.866Z,30.10
2018-02-13T13:03:37.566Z,31.27
2018-02-13T13:06:07.521Z,31.70
2018-02-13T13:08:37.344Z,33.30
2018-02-13T13:11:07.086Z,29.33
2018-02-13T13:13:37.048Z,31.50
2018-02-13T13:16:07.152Z,29.97
2018-02-13T13:18:37.144Z,32.43
2018-02-13T13:21:06.834Z,33.00
2018-02-13T13:23:37.443Z,33.17
2018-02-13T13:26:07.784Z,34.70
2018-02-13T13:28:38.196Z,37.70
2018-02-13T13:31:08.414Z,43.03
2018-02-13T13:33:38.134Z,38.03
2018-02-13T13:36:07.981Z,43.13
2018-02-13T13:38:38.278Z,37.70
2018-02-13T13:41:08.646Z,42.40
2018-02-13T13:43:38.918Z,38.17
2018-02-13T13:46:08.688Z,35.27
2018-02-13T13:48:38.904Z,38.13
2018-02-13T13:51:08.888Z,38.73
2018-02-13T13:53:38.622Z,34.63
2018-02-13T13:56:09.138Z,34.40
2018-02-13T13:58:39.866Z,32.57
2018-02-13T14:01:10.259Z,34.43
2018-02-13T14:03:40.441Z,32.17
2018-02-13T14:06:10.336Z,33.43
2018-02-13T14:08:40.202Z,29.33
2018-02-13T14:11:09.986Z,30.37
2018-02-13T14:13:40.280Z,28.03
2018-02-13T14:16:10.177Z,31.13
2018-02-13T14:18:40.470Z,30.33
2018-02-13T14:21:10.520Z,28.97
2018-02-13T14:23:41.041Z,29.57
2018-02-13T14:26:11.498Z,26.63
2018-02-13T14:28:41.271Z,29.30
2018-02-13T14:31:11.508Z,29.23
2018-02-13T14:33:41.680Z,26.70
2018-02-13T14:36:12.303Z,32.57
2018-02-13T14:38:42.736Z,30.97
2018-02-13T14:41:12.628Z,32.13
2018-02-13T14:43:42.984Z,32.17
2018-02-13T14:46:13.485Z,33.03
2018-02-13T14:48:44.015Z,35.90
2018-02-13T14:51:14.450Z,38.23
2018-02-13T14:53:44.973Z,34.10
2018-02-13T14:56:15.041Z,30.60
2018-02-13T14:58:45.167Z,33.67
2018-02-13T15:01:15.531Z,41.10
2018-02-13T15:03:45.784Z,36.67
2018-02-13T15:06:15.974Z,40.73
2018-02-13T15:08:45.714Z,38.73
2018-02-13T15:11:15.500Z,41.37
2018-02-13T15:13:45.626Z,38.87
2018-02-13T15:16:15.984Z,38.43
2018-02-13T15:18:45.732Z,37.40
2018-02-13T15:21:15.410Z,39.83
2018-02-13T15:23:45.810Z,39.77
2018-02-13T15:26:15.820Z,38.93
2018-02-13T15:28:46.212Z,39.67
2018-02-13T15:31:16.553Z,39.47
2018-02-13T15:33:46.581Z,40.30
2018-02-13T15:36:16.309Z,44.23
2018-02-13T15:38:46.602Z,48.93
2018-02-13T15:41:16.703Z,40.90
2018-02-13T15:43:46.819Z,43.30
2018-02-13T15:46:16.887Z,38.03
2018-02-13T15:48:46.900Z,43.00
2018-02-13T15:51:18.490Z,40.57
2018-02-13T15:53:49.269Z,43.63
2018-02-13T15:56:18.931Z,41.90
2018-02-13T15:58:49.205Z,43.20
2018-02-13T16:01:18.943Z,41.03
2018-02-13T16:03:48.730Z,36.30
2018-02-13T16:06:19.217Z,36.17
2018-02-13T16:08:48.957Z,34.60
2018-02-13T16:11:18.674Z,32.03
2018-02-13T16:13:48.663Z,32.97
2018-02-13T16:16:19.172Z,31.17
2018-02-13T16:18:48.889Z,34.00
2018-02-13T16:21:18.567Z,34.13
2018-02-13T16:23:48.461Z,34.10
2018-02-13T16:26:18.889Z,36.37
2018-02-13T16:28:49.179Z,33.77
2018-02-13T16:31:19.411Z,32.90
2018-02-13T16:33:49.150Z,34.83
2018-02-13T16:36:18.876Z,36.47
2018-02-13T16:38:49.159Z,33.20
2018-02-13T16:41:18.898Z,34.93
2018-02-13T16:43:48.768Z,34.97
2018-02-13T16:46:19.280Z,35.83
2018-02-13T16:48:49.044Z,33.83
2018-02-13T16:51:18.918Z,33.50
2018-02-13T16:53:48.658Z,32.57
2018-02-13T16:56:18.724Z,33.73
2018-02-13T16:58:48.432Z,32.97
2018-02-13T17:01:18.171Z,31.33
2018-02-13T17:03:48.085Z,35.00
2018-02-13T17:06:17.892Z,34.63
2018-02-13T17:08:48.324Z,35.70
2018-02-13T17:11:18.013Z,35.83
2018-02-13T17:13:47.845Z,42.00
2018-02-13T17:16:17.700Z,40.63
2018-02-13T17:18:47.830Z,42.60
2018-02-13T17:21:17.539Z,43.63
2018-02-13T17:23:47.459Z,42.27
2018-02-13T17:26:17.350Z,40.43
2018-02-13T17:28:48.125Z,46.77
2018-02-13T17:31:17.958Z,46.37
2018-02-13T17:33:47.726Z,43.83
2018-02-13T17:36:19.087Z,53.03
2018-02-13T17:38:48.787Z,44.00
2018-02-13T17:41:19.217Z,48.53
2018-02-13T17:43:49.637Z,44.57
2018-02-13T17:46:20.184Z,44.10
2018-02-13T17:48:50.163Z,44.50
2018-02-13T17:51:20.368Z,43.10
2018-02-13T17:53:50.218Z,42.87
2018-02-13T17:56:20.306Z,47.47
2018-02-13T17:58:50.103Z,44.43
2018-02-13T18:01:22.252Z,44.97
2018-02-13T18:03:52.747Z,46.10
2018-02-13T18:06:22.501Z,40.33
2018-02-13T18:08:53.005Z,39.63
2018-02-13T18:11:22.805Z,44.13
2018-02-13T18:13:53.277Z,43.27
2018-02-13T18:16:23.694Z,42.67
2018-02-13T18:18:54.289Z,45.13
2018-02-13T18:21:24.751Z,42.67
2018-02-13T18:23:55.022Z,43.10
2018-02-13T18:26:25.601Z,46.83
2018-02-13T18:28:56.552Z,45.87
2018-02-13T18:31:27.048Z,43.30
2018-02-13T18:33:57.579Z,43.13
2018-02-13T18:36:28.275Z,41.53
2018-02-13T18:38:59.091Z,42.47
2018-02-13T18:41:29.318Z,48.50
2018-02-13T18:43:59.431Z,45.50
2018-02-13T18:46:29.933Z,50.20
2018-02-13T18:49:00.547Z,44.77
2018-02-13T18:51:31.049Z,41.80
2018-02-13T18:54:01.430Z,39.00
2018-02-13T18:56:31.791Z,36.97
2018-02-13T18:59:02.214Z,40.50
2018-02-13T19:01:32.124Z,40.23
2018-02-13T19:04:02.524Z,41.83
2018-02-13T19:06:32.315Z,40.93
2018-02-13T19:09:02.627Z,39.47
2018-02-13T19:11:32.752Z,38.60
2018-02-13T19:14:03.218Z,40.23
2018-02-13T19:16:33.775Z,41.90
2018-02-13T19:19:04.331Z,42.13
2018-02-13T19:21:34.202Z,44.40
2018-02-13T19:24:04.909Z,40.40
2018-02-13T19:26:35.261Z,43.47
2018-02-13T19:29:05.686Z,38.77
2018-02-13T19:31:36.245Z,40.97
2018-02-13T19:34:06.604Z,41.17
2018-02-13T19:36:36.869Z,42.17
2018-02-13T19:39:07.250Z,41.77
2018-02-13T19:41:38.085Z,40.00
2018-02-13T19:44:08.398Z,44.50
2018-02-13T19:46:38.106Z,38.60
2018-02-13T19:49:08.447Z,43.47
2018-02-13T19:51:38.913Z,44.17
2018-02-13T19:54:09.296Z,43.17
2018-02-13T19:56:40.696Z,42.17
2018-02-13T19:59:10.918Z,41.37
2018-02-13T20:01:41.783Z,41.77
2018-02-13T20:04:12.164Z,43.57
2018-02-13T20:06:42.336Z,43.87
2018-02-13T20:09:12.580Z,39.97
2018-02-13T20:11:43.203Z,43.97
2018-02-13T20:14:12.890Z,45.23
2018-02-13T20:16:43.557Z,39.77
2018-02-13T20:19:13.982Z,42.23
2018-02-13T20:21:44.754Z,41.77
2018-02-13T20:24:14.456Z,44.07
2018-02-13T20:26:45.440Z,40.73
2018-02-13T20:29:15.188Z,39.10
2018-02-13T20:31:46.394Z,40.63
2018-02-13T20:34:16.639Z,41.37
2018-02-13T20:36:46.416Z,40.87
2018-02-13T20:39:16.901Z,39.23
2018-02-13T20:41:47.307Z,38.93
2018-02-13T20:44:17.690Z,43.37
2018-02-13T20:46:48.059Z,37.00
2018-02-13T20:49:18.256Z,37.47
2018-02-13T20:51:47.957Z,38.17
2018-02-13T20:54:18.207Z,38.37
2018-02-13T20:56:48.661Z,35.70
2018-02-13T20:59:18.337Z,38.10
2018-02-13T21:01:48.056Z,36.80
2018-02-13T21:04:18.034Z,36.77
2018-02-13T21:06:47.929Z,36.43
2018-02-13T21:09:17.631Z,38.17
2018-02-13T21:11:48.027Z,33.50
2018-02-13T21:14:17.810Z,35.43
2018-02-13T21:16:48.395Z,34.87
2018-02-13T21:19:18.725Z,36.73
2018-02-13T21:21:49.465Z,35.40
2018-02-13T21:24:19.776Z,36.70
2018-02-13T21:26:50.488Z,36.77
2018-02-13T21:29:20.914Z,35.27
2018-02-13T21:31:51.396Z,37.40
2018-02-13T21:34:21.629Z,38.83
2018-02-13T21:36:52.642Z,36.57
2018-02-13T21:39:22.832Z,37.97
2018-02-13T21:41:53.202Z,41.67
2018-02-13T21:44:23.573Z,40.73
2018-02-13T21:46:54.106Z,43.63
2018-02-13T21:49:24.754Z,43.00
2018-02-13T21:51:55.176Z,43.90
2018-02-13T21:54:25.695Z,46.33
2018-02-13T21:56:56.199Z,42.50
2018-02-13T21:59:26.726Z,41.43
2018-02-13T22:01:57.172Z,44.27
2018-02-13T22:04:27.730Z,43.73
2018-02-13T22:06:58.247Z,44.80
2018-02-13T22:09:28.703Z,45.00
2018-02-13T22:11:58.615Z,40.17
2018-02-13T22:14:28.476Z,44.63
2018-02-13T22:16:58.928Z,39.70
2018-02-13T22:19:28.683Z,43.27
2018-02-13T22:21:59.811Z,45.70
2018-02-13T22:24:30.005Z,44.33
2018-02-13T22:27:00.535Z,43.23
2018-02-13T22:29:30.631Z,47.73
2018-02-13T22:32:00.668Z,48.27
2018-02-13T22:34:31.292Z,46.40
2018-02-13T22:37:01.648Z,46.07
2018-02-13T22:39:31.945Z,50.57
2018-02-13T22:42:02.598Z,57.37
2018-02-13T22:44:32.903Z,56.53
2018-02-13T22:47:03.320Z,67.77
2018-02-13T22:49:33.458Z,64.07
2018-02-13T22:52:03.915Z,69.13
2018-02-13T22:54:34.210Z,62.93
2018-02-13T22:57:04.752Z,66.40
2018-02-13T22:59:35.122Z,66.53
2018-02-13T23:02:05.813Z,70.07
2018-02-13T23:04:36.163Z,72.03
2018-02-13T23:07:07.118Z,68.13
2018-02-13T23:09:37.636Z,72.50
2018-02-13T23:12:08.124Z,67.17
2018-02-13T23:14:38.452Z,73.70
2018-02-13T23:17:08.924Z,75.37
2018-02-13T23:19:39.078Z,78.47
2018-02-13T23:22:09.456Z,77.83
2018-02-13T23:24:39.426Z,81.53
2018-02-13T23:27:09.816Z,76.90
2018-02-13T23:29:40.402Z,77.77
2018-02-13T23:32:10.907Z,78.70
2018-02-13T23:34:41.496Z,77.67
2018-02-13T23:37:11.899Z,75.87
2018-02-13T23:39:42.274Z,80.77
2018-02-13T23:42:12.607Z,81.10
2018-02-13T23:44:42.982Z,76.67
2018-02-13T23:47:13.582Z,80.23
2018-02-13T23:49:43.548Z,79.07
2018-02-13T23:52:13.823Z,74.27
2018-02-13T23:54:44.341Z,70.27
2018-02-13T23:57:14.952Z,70.23
2018-02-13T23:59:45.396Z,70.93
